Campanya meteocatpedra

Dades EMA Falset

?
?
Resum diari
Dades diàries de l'estació meteorològica
Temperatura mitjana 5.2 °C
Temperatura màxima 7.0 °C 0:46 TU
Temperatura mínima 3.0 °C 5:42 TU
Humitat relativa mitjana 100%
Precipitació acumulada 0.3 mm
Ratxa màxima del vent (10 m) 10.1 km/h - 112º 20:56 TU
Pressió atmosfèrica mitjana 1037.3 hPa
Irradiació solar global 2.6 MJ/m2

El tram horari està expressat en Temps Universal (TU). Cal sumar una hora en horari d'hivern i dues en horari d'estiu per passar a l'hora oficial.

Falset

Metadades estació meteorol´gica
Municipi Falset
Comarca Priorat
Altitud 359 m
Data alta 20.12.2006
Estat actual Operativa
Dades de període
Període
TU
TM
°C
TX
°C
TN
°C
HRM
%
PPT
mm
VVM (10 m)
km/h
DVM (10 m)
graus
VVX (10 m)
km/h
PM
hPa
RS
W/m2
00:00 - 00:30 6.3 6.5 6.3 100 0.0 1.1 263 3.2 1036.1 0
00:30 - 01:00 6.7 7.0 6.5 100 0.0 2.5 72 5.0 1036.0 0
01:00 - 01:30 6.6 6.7 6.6 100 0.0 1.1 44 5.0 1035.9 0
01:30 - 02:00 6.5 6.7 5.9 100 0.0 2.5 57 6.8 1035.9 0
02:00 - 02:30 5.3 5.8 4.8 100 0.0 1.8 188 5.4 1036.3 0
02:30 - 03:00 5.5 5.9 5.1 100 0.0 2.5 46 4.7 1036.3 0
03:00 - 03:30 5.2 5.8 4.7 100 0.0 2.5 101 5.8 1036.4 0
03:30 - 04:00 4.6 5.4 3.9 100 0.0 2.5 25 6.8 1036.3 0
04:00 - 04:30 4.9 5.3 4.5 100 0.0 1.4 55 6.5 1036.3 0
04:30 - 05:00 3.7 4.8 3.3 100 0.0 2.5 43 7.2 1036.6 0
05:00 - 05:30 3.7 3.9 3.5 100 0.0 2.5 52 4.7 1036.5 0
05:30 - 06:00 3.2 3.5 3.0 100 0.1 0.7 196 2.5 1036.7 0
06:00 - 06:30 3.2 3.4 3.1 100 0.0 2.2 1 3.6 1036.9 0
06:30 - 07:00 3.3 3.4 3.2 100 0.0 1.4 118 3.6 1037.2 0
07:00 - 07:30 3.5 3.7 3.3 100 0.0 1.8 138 5.0 1037.5 5
07:30 - 08:00 3.9 4.1 3.7 100 0.0 3.2 201 6.8 1037.8 21
08:00 - 08:30 4.1 4.2 4.0 100 0.0 2.2 232 4.7 1038.1 43
08:30 - 09:00 4.5 4.7 4.2 100 0.0 2.2 201 6.1 1038.2 62
09:00 - 09:30 4.8 5.0 4.7 100 0.0 2.5 231 5.8 1038.4 82
09:30 - 10:00 5.0 5.3 4.9 100 0.0 1.4 266 4.3 1038.5 101
10:00 - 10:30 5.2 5.3 5.0 100 0.0 2.5 260 5.8 1038.4 115
10:30 - 11:00 5.4 5.7 5.1 100 0.0 2.5 274 6.8 1038.3 135
11:00 - 11:30 5.5 5.8 5.4 100 0.0 2.5 317 6.8 1038.1 118
11:30 - 12:00 5.6 5.9 5.4 100 0.0 1.4 95 5.0 1037.8 136
12:00 - 12:30 6.0 6.3 5.8 100 0.0 2.2 117 5.8 1037.5 103
12:30 - 13:00 6.1 6.4 6.0 100 0.0 2.2 302 8.3 1037.1 97
13:00 - 13:30 6.3 6.4 6.2 100 0.0 2.2 243 6.5 1036.8 104
13:30 - 14:00 6.3 6.7 6.1 100 0.0 2.2 163 4.7 1036.6 121
14:00 - 14:30 6.6 6.7 6.6 100 0.0 2.9 256 6.8 1036.4 91
14:30 - 15:00 6.5 6.6 6.4 100 0.0 1.8 300 5.0 1036.4 59
15:00 - 15:30 6.5 6.7 6.4 100 0.0 2.2 328 6.8 1036.4 42
15:30 - 16:00 6.4 6.6 6.3 100 0.0 2.2 318 5.8 1036.5 19
16:00 - 16:30 6.3 6.4 6.2 100 0.0 1.8 356 5.4 1036.5 6
16:30 - 17:00 6.1 6.2 6.0 100 0.0 2.5 335 5.8 1036.6 0
17:00 - 17:30 6.0 6.0 5.8 100 0.0 2.5 285 5.8 1036.7 0
17:30 - 18:00 5.7 5.8 5.6 100 0.0 1.4 358 5.8 1037.0 0
18:00 - 18:30 5.5 5.7 5.4 100 0.0 2.9 335 6.5 1037.2 0
18:30 - 19:00 5.4 5.5 5.2 100 0.1 1.4 274 5.4 1037.5 0
19:00 - 19:30 5.3 5.4 5.2 100 0.0 1.4 30 5.4 1037.7 0
19:30 - 20:00 5.1 5.3 4.9 100 0.0 1.1 22 6.1 1037.9 0
20:00 - 20:30 4.8 4.9 4.8 100 0.0 2.5 90 5.8 1038.1 0
20:30 - 21:00 4.7 4.9 4.3 100 0.0 4.3 77 10.1 1038.2 0
21:00 - 21:30 4.4 4.5 4.3 100 0.0 3.6 96 7.2 1038.4 0
21:30 - 22:00 4.5 4.5 4.4 100 0.0 3.2 90 5.8 1038.3 0
22:00 - 22:30 4.4 4.5 4.3 100 0.1 3.2 82 6.8 1038.5 0
22:30 - 23:00 4.1 4.3 4.0 100 0.0 4.7 98 8.3 1038.4 0
23:00 - 23:30 4.2 4.3 4.0 100 0.0 2.5 116 4.7 1038.4 0
23:30 - 00:00 4.2 4.4 4.1 100 0.0 4.0 101 6.8 1038.3 0

Les dades en taronja només han passat un control de qualitat automàtic. Resta pendent la seva validació definitiva.